sensor_id;sensor_type;location;lat;lon;timestamp;P1;durP1;ratioP1;P2;durP2;ratioP2
35897;SDS011;21997;47.118;15.346;2022-09-25T00:00:41;5.50;;;4.63;;
35897;SDS011;21997;47.118;15.346;2022-09-25T00:03:08;6.53;;;5.83;;
35897;SDS011;21997;47.118;15.346;2022-09-25T00:05:35;6.50;;;5.57;;
35897;SDS011;21997;47.118;15.346;2022-09-25T00:08:01;6.10;;;5.37;;
35897;SDS011;21997;47.118;15.346;2022-09-25T00:10:27;5.50;;;4.90;;
35897;SDS011;21997;47.118;15.346;2022-09-25T00:12:53;5.27;;;4.77;;
35897;SDS011;21997;47.118;15.346;2022-09-25T00:15:19;5.87;;;5.27;;
35897;SDS011;21997;47.118;15.346;2022-09-25T00:17:45;6.70;;;5.30;;
35897;SDS011;21997;47.118;15.346;2022-09-25T00:20:10;7.10;;;5.27;;
35897;SDS011;21997;47.118;15.346;2022-09-25T00:22:36;5.33;;;4.83;;
35897;SDS011;21997;47.118;15.346;2022-09-25T00:25:02;6.77;;;5.10;;
35897;SDS011;21997;47.118;15.346;2022-09-25T00:27:27;5.23;;;4.77;;
35897;SDS011;21997;47.118;15.346;2022-09-25T00:29:53;7.30;;;5.73;;
35897;SDS011;21997;47.118;15.346;2022-09-25T00:32:18;8.53;;;5.70;;
35897;SDS011;21997;47.118;15.346;2022-09-25T00:34:44;7.70;;;5.60;;
35897;SDS011;21997;47.118;15.346;2022-09-25T00:37:10;7.33;;;5.57;;
35897;SDS011;21997;47.118;15.346;2022-09-25T00:39:37;6.70;;;6.00;;
35897;SDS011;21997;47.118;15.346;2022-09-25T00:42:02;6.60;;;6.00;;
35897;SDS011;21997;47.118;15.346;2022-09-25T00:50:44;6.50;;;5.43;;
35897;SDS011;21997;47.118;15.346;2022-09-25T00:53:11;9.53;;;5.67;;
35897;SDS011;21997;47.118;15.346;2022-09-25T00:55:39;9.40;;;6.10;;
35897;SDS011;21997;47.118;15.346;2022-09-25T00:58:06;5.77;;;5.10;;
35897;SDS011;21997;47.118;15.346;2022-09-25T01:00:32;10.27;;;6.27;;
35897;SDS011;21997;47.118;15.346;2022-09-25T01:02:58;6.73;;;5.23;;
35897;SDS011;21997;47.118;15.346;2022-09-25T01:05:28;6.77;;;6.07;;
35897;SDS011;21997;47.118;15.346;2022-09-25T01:07:55;5.93;;;5.07;;
35897;SDS011;21997;47.118;15.346;2022-09-25T01:10:24;6.37;;;5.50;;
35897;SDS011;21997;47.118;15.346;2022-09-25T01:12:49;7.50;;;5.40;;
35897;SDS011;21997;47.118;15.346;2022-09-25T01:15:17;6.63;;;5.13;;
35897;SDS011;21997;47.118;15.346;2022-09-25T01:17:49;8.60;;;5.23;;
35897;SDS011;21997;47.118;15.346;2022-09-25T01:23:54;5.10;;;4.30;;
35897;SDS011;21997;47.118;15.346;2022-09-25T01:26:42;4.70;;;4.30;;
35897;SDS011;21997;47.118;15.346;2022-09-25T01:29:24;5.27;;;4.30;;
35897;SDS011;21997;47.118;15.346;2022-09-25T01:32:02;7.63;;;4.83;;
35897;SDS011;21997;47.118;15.346;2022-09-25T01:34:50;4.77;;;4.37;;
35897;SDS011;21997;47.118;15.346;2022-09-25T01:37:25;5.63;;;4.67;;
35897;SDS011;21997;47.118;15.346;2022-09-25T01:42:32;7.00;;;4.43;;
35897;SDS011;21997;47.118;15.346;2022-09-25T01:45:24;4.97;;;4.40;;
35897;SDS011;21997;47.118;15.346;2022-09-25T01:47:53;5.57;;;4.73;;
35897;SDS011;21997;47.118;15.346;2022-09-25T01:50:29;5.47;;;4.50;;
35897;SDS011;21997;47.118;15.346;2022-09-25T01:52:59;5.13;;;4.63;;
35897;SDS011;21997;47.118;15.346;2022-09-25T01:55:29;5.97;;;4.73;;
35897;SDS011;21997;47.118;15.346;2022-09-25T01:58:06;6.33;;;4.50;;
35897;SDS011;21997;47.118;15.346;2022-09-25T02:00:35;5.97;;;4.33;;
35897;SDS011;21997;47.118;15.346;2022-09-25T02:03:08;7.03;;;5.00;;
35897;SDS011;21997;47.118;15.346;2022-09-25T02:05:44;4.83;;;4.33;;
35897;SDS011;21997;47.118;15.346;2022-09-25T02:08:16;5.23;;;4.73;;
35897;SDS011;21997;47.118;15.346;2022-09-25T02:11:04;4.73;;;4.33;;
35897;SDS011;21997;47.118;15.346;2022-09-25T02:13:46;7.50;;;4.93;;
35897;SDS011;21997;47.118;15.346;2022-09-25T02:16:21;5.67;;;4.67;;
35897;SDS011;21997;47.118;15.346;2022-09-25T02:18:51;5.57;;;4.67;;
35897;SDS011;21997;47.118;15.346;2022-09-25T02:24:17;6.03;;;4.80;;
35897;SDS011;21997;47.118;15.346;2022-09-25T02:26:44;5.40;;;4.90;;
35897;SDS011;21997;47.118;15.346;2022-09-25T02:29:10;5.77;;;4.40;;
35897;SDS011;21997;47.118;15.346;2022-09-25T02:31:37;4.63;;;4.20;;
35897;SDS011;21997;47.118;15.346;2022-09-25T02:34:06;5.57;;;5.07;;
35897;SDS011;21997;47.118;15.346;2022-09-25T02:36:32;5.63;;;5.07;;
35897;SDS011;21997;47.118;15.346;2022-09-25T02:38:58;5.57;;;4.80;;
35897;SDS011;21997;47.118;15.346;2022-09-25T02:47:37;5.23;;;4.60;;
35897;SDS011;21997;47.118;15.346;2022-09-25T02:50:24;4.67;;;4.20;;
35897;SDS011;21997;47.118;15.346;2022-09-25T02:55:44;4.60;;;4.20;;
35897;SDS011;21997;47.118;15.346;2022-09-25T02:58:25;5.07;;;4.43;;
35897;SDS011;21997;47.118;15.346;2022-09-25T03:00:52;5.93;;;4.40;;
35897;SDS011;21997;47.118;15.346;2022-09-25T03:03:20;7.53;;;4.57;;
35897;SDS011;21997;47.118;15.346;2022-09-25T03:05:47;6.13;;;4.70;;
35897;SDS011;21997;47.118;15.346;2022-09-25T03:08:13;10.20;;;4.33;;
35897;SDS011;21997;47.118;15.346;2022-09-25T03:10:57;5.03;;;4.27;;
35897;SDS011;21997;47.118;15.346;2022-09-25T03:13:23;6.07;;;4.63;;
35897;SDS011;21997;47.118;15.346;2022-09-25T03:15:56;5.80;;;4.83;;
35897;SDS011;21997;47.118;15.346;2022-09-25T03:18:27;8.33;;;4.90;;
35897;SDS011;21997;47.118;15.346;2022-09-25T03:20:52;6.60;;;4.97;;
35897;SDS011;21997;47.118;15.346;2022-09-25T03:23:18;6.27;;;4.53;;
35897;SDS011;21997;47.118;15.346;2022-09-25T03:25:44;5.23;;;4.73;;
35897;SDS011;21997;47.118;15.346;2022-09-25T03:28:10;4.97;;;4.57;;
35897;SDS011;21997;47.118;15.346;2022-09-25T03:30:36;5.37;;;4.33;;
35897;SDS011;21997;47.118;15.346;2022-09-25T03:33:05;7.03;;;4.67;;
35897;SDS011;21997;47.118;15.346;2022-09-25T03:35:31;6.83;;;5.00;;
35897;SDS011;21997;47.118;15.346;2022-09-25T03:37:56;5.93;;;5.13;;
35897;SDS011;21997;47.118;15.346;2022-09-25T03:40:23;5.03;;;4.53;;
35897;SDS011;21997;47.118;15.346;2022-09-25T03:42:48;5.57;;;4.73;;
35897;SDS011;21997;47.118;15.346;2022-09-25T03:45:13;7.80;;;4.83;;
35897;SDS011;21997;47.118;15.346;2022-09-25T03:47:39;5.10;;;4.60;;
35897;SDS011;21997;47.118;15.346;2022-09-25T03:50:05;5.80;;;4.60;;
35897;SDS011;21997;47.118;15.346;2022-09-25T03:52:32;5.40;;;4.70;;
35897;SDS011;21997;47.118;15.346;2022-09-25T03:54:58;4.93;;;4.47;;
35897;SDS011;21997;47.118;15.346;2022-09-25T03:57:23;7.37;;;4.47;;
35897;SDS011;21997;47.118;15.346;2022-09-25T03:59:49;5.37;;;4.87;;
35897;SDS011;21997;47.118;15.346;2022-09-25T04:02:15;4.97;;;4.43;;
35897;SDS011;21997;47.118;15.346;2022-09-25T04:04:40;5.80;;;5.17;;
35897;SDS011;21997;47.118;15.346;2022-09-25T04:07:06;5.60;;;4.87;;
35897;SDS011;21997;47.118;15.346;2022-09-25T04:09:32;5.00;;;4.40;;
35897;SDS011;21997;47.118;15.346;2022-09-25T04:11:58;5.40;;;4.90;;
35897;SDS011;21997;47.118;15.346;2022-09-25T04:14:23;4.10;;;3.70;;
35897;SDS011;21997;47.118;15.346;2022-09-25T04:16:49;5.77;;;4.57;;
35897;SDS011;21997;47.118;15.346;2022-09-25T04:19:15;5.40;;;4.90;;
35897;SDS011;21997;47.118;15.346;2022-09-25T04:21:41;7.00;;;4.60;;
35897;SDS011;21997;47.118;15.346;2022-09-25T04:24:06;5.20;;;4.67;;
35897;SDS011;21997;47.118;15.346;2022-09-25T04:26:50;4.70;;;4.20;;
35897;SDS011;21997;47.118;15.346;2022-09-25T04:29:17;5.60;;;4.97;;
35897;SDS011;21997;47.118;15.346;2022-09-25T04:31:43;5.70;;;4.53;;
35897;SDS011;21997;47.118;15.346;2022-09-25T04:34:28;4.80;;;4.37;;
35897;SDS011;21997;47.118;15.346;2022-09-25T04:36:54;4.90;;;4.40;;
35897;SDS011;21997;47.118;15.346;2022-09-25T04:39:19;6.13;;;5.10;;
35897;SDS011;21997;47.118;15.346;2022-09-25T04:41:45;6.07;;;4.90;;
35897;SDS011;21997;47.118;15.346;2022-09-25T04:44:10;5.47;;;4.77;;
35897;SDS011;21997;47.118;15.346;2022-09-25T04:46:36;5.50;;;5.00;;
35897;SDS011;21997;47.118;15.346;2022-09-25T04:49:02;4.83;;;4.43;;
35897;SDS011;21997;47.118;15.346;2022-09-25T04:51:27;6.60;;;5.10;;
35897;SDS011;21997;47.118;15.346;2022-09-25T04:53:54;7.80;;;6.20;;
35897;SDS011;21997;47.118;15.346;2022-09-25T04:56:20;6.57;;;5.73;;
35897;SDS011;21997;47.118;15.346;2022-09-25T04:58:46;8.37;;;5.73;;
35897;SDS011;21997;47.118;15.346;2022-09-25T05:01:13;7.00;;;6.37;;
35897;SDS011;21997;47.118;15.346;2022-09-25T05:03:39;7.97;;;5.37;;
35897;SDS011;21997;47.118;15.346;2022-09-25T05:06:05;9.40;;;5.57;;
35897;SDS011;21997;47.118;15.346;2022-09-25T05:08:30;5.43;;;4.77;;
35897;SDS011;21997;47.118;15.346;2022-09-25T05:10:56;8.13;;;6.17;;
35897;SDS011;21997;47.118;15.346;2022-09-25T05:13:21;7.70;;;5.13;;
35897;SDS011;21997;47.118;15.346;2022-09-25T05:15:47;7.43;;;5.13;;
35897;SDS011;21997;47.118;15.346;2022-09-25T05:18:17;6.83;;;5.50;;
35897;SDS011;21997;47.118;15.346;2022-09-25T05:20:45;8.20;;;5.77;;
35897;SDS011;21997;47.118;15.346;2022-09-25T05:23:10;6.23;;;5.20;;
35897;SDS011;21997;47.118;15.346;2022-09-25T05:25:36;6.80;;;5.53;;
35897;SDS011;21997;47.118;15.346;2022-09-25T05:28:01;8.43;;;5.27;;
35897;SDS011;21997;47.118;15.346;2022-09-25T05:30:28;7.97;;;5.13;;
35897;SDS011;21997;47.118;15.346;2022-09-25T05:32:54;8.93;;;5.70;;
35897;SDS011;21997;47.118;15.346;2022-09-25T05:35:23;6.93;;;5.73;;
35897;SDS011;21997;47.118;15.346;2022-09-25T05:37:50;7.40;;;5.70;;
35897;SDS011;21997;47.118;15.346;2022-09-25T05:40:16;12.20;;;6.27;;
35897;SDS011;21997;47.118;15.346;2022-09-25T05:42:45;7.37;;;5.73;;
35897;SDS011;21997;47.118;15.346;2022-09-25T05:45:14;7.13;;;6.43;;
35897;SDS011;21997;47.118;15.346;2022-09-25T05:47:42;7.67;;;5.67;;
35897;SDS011;21997;47.118;15.346;2022-09-25T05:50:09;12.23;;;6.57;;
35897;SDS011;21997;47.118;15.346;2022-09-25T05:52:36;9.57;;;6.87;;
35897;SDS011;21997;47.118;15.346;2022-09-25T05:55:01;7.20;;;5.60;;
35897;SDS011;21997;47.118;15.346;2022-09-25T05:57:34;8.43;;;6.30;;
35897;SDS011;21997;47.118;15.346;2022-09-25T06:00:00;7.87;;;5.97;;
35897;SDS011;21997;47.118;15.346;2022-09-25T06:02:26;7.07;;;6.23;;
35897;SDS011;21997;47.118;15.346;2022-09-25T06:04:52;8.73;;;6.00;;
35897;SDS011;21997;47.118;15.346;2022-09-25T06:07:17;11.17;;;7.53;;
35897;SDS011;21997;47.118;15.346;2022-09-25T06:09:43;19.57;;;12.40;;
35897;SDS011;21997;47.118;15.346;2022-09-25T06:12:08;13.97;;;11.07;;
35897;SDS011;21997;47.118;15.346;2022-09-25T06:14:33;11.17;;;8.40;;
35897;SDS011;21997;47.118;15.346;2022-09-25T06:17:00;13.43;;;9.37;;
35897;SDS011;21997;47.118;15.346;2022-09-25T06:19:25;14.00;;;9.93;;
35897;SDS011;21997;47.118;15.346;2022-09-25T06:21:53;11.90;;;7.77;;
35897;SDS011;21997;47.118;15.346;2022-09-25T06:24:18;7.70;;;6.63;;
35897;SDS011;21997;47.118;15.346;2022-09-25T06:26:44;7.70;;;6.50;;
35897;SDS011;21997;47.118;15.346;2022-09-25T06:29:09;7.60;;;6.80;;
35897;SDS011;21997;47.118;15.346;2022-09-25T06:31:34;8.23;;;5.83;;
35897;SDS011;21997;47.118;15.346;2022-09-25T06:34:00;7.57;;;6.53;;
35897;SDS011;21997;47.118;15.346;2022-09-25T06:36:27;9.83;;;6.60;;
35897;SDS011;21997;47.118;15.346;2022-09-25T06:38:53;8.47;;;5.80;;
35897;SDS011;21997;47.118;15.346;2022-09-25T06:41:19;9.10;;;7.47;;
35897;SDS011;21997;47.118;15.346;2022-09-25T06:43:47;9.30;;;7.20;;
35897;SDS011;21997;47.118;15.346;2022-09-25T06:46:13;8.17;;;7.17;;
35897;SDS011;21997;47.118;15.346;2022-09-25T06:48:39;9.13;;;7.10;;
35897;SDS011;21997;47.118;15.346;2022-09-25T06:51:05;7.47;;;6.80;;
35897;SDS011;21997;47.118;15.346;2022-09-25T06:53:33;9.07;;;8.10;;
35897;SDS011;21997;47.118;15.346;2022-09-25T06:55:58;9.23;;;6.97;;
35897;SDS011;21997;47.118;15.346;2022-09-25T06:58:24;10.10;;;8.83;;
35897;SDS011;21997;47.118;15.346;2022-09-25T07:00:52;11.83;;;8.87;;
35897;SDS011;21997;47.118;15.346;2022-09-25T07:03:19;12.47;;;8.60;;
35897;SDS011;21997;47.118;15.346;2022-09-25T07:06:05;9.93;;;7.60;;
35897;SDS011;21997;47.118;15.346;2022-09-25T07:08:32;11.30;;;7.27;;
35897;SDS011;21997;47.118;15.346;2022-09-25T07:10:59;8.93;;;8.03;;
35897;SDS011;21997;47.118;15.346;2022-09-25T07:13:26;10.17;;;9.17;;
35897;SDS011;21997;47.118;15.346;2022-09-25T07:16:03;10.57;;;8.63;;
35897;SDS011;21997;47.118;15.346;2022-09-25T07:18:30;10.93;;;7.50;;
35897;SDS011;21997;47.118;15.346;2022-09-25T07:21:00;12.57;;;8.93;;
35897;SDS011;21997;47.118;15.346;2022-09-25T07:23:26;10.20;;;7.97;;
35897;SDS011;21997;47.118;15.346;2022-09-25T07:25:52;9.70;;;8.33;;
35897;SDS011;21997;47.118;15.346;2022-09-25T07:28:18;11.00;;;9.37;;
35897;SDS011;21997;47.118;15.346;2022-09-25T07:30:44;11.73;;;10.13;;
35897;SDS011;21997;47.118;15.346;2022-09-25T07:33:10;11.03;;;9.90;;
35897;SDS011;21997;47.118;15.346;2022-09-25T07:35:35;12.10;;;9.23;;
35897;SDS011;21997;47.118;15.346;2022-09-25T07:38:04;12.17;;;10.90;;
35897;SDS011;21997;47.118;15.346;2022-09-25T07:40:29;13.57;;;10.80;;
35897;SDS011;21997;47.118;15.346;2022-09-25T07:43:05;14.40;;;10.33;;
35897;SDS011;21997;47.118;15.346;2022-09-25T07:45:30;10.67;;;9.57;;
35897;SDS011;21997;47.118;15.346;2022-09-25T07:48:00;10.27;;;9.17;;
35897;SDS011;21997;47.118;15.346;2022-09-25T07:50:29;11.23;;;10.03;;
35897;SDS011;21997;47.118;15.346;2022-09-25T07:52:55;12.30;;;9.33;;
35897;SDS011;21997;47.118;15.346;2022-09-25T07:55:21;10.10;;;8.83;;
35897;SDS011;21997;47.118;15.346;2022-09-25T07:57:49;10.13;;;9.13;;
35897;SDS011;21997;47.118;15.346;2022-09-25T08:00:16;9.27;;;8.23;;
35897;SDS011;21997;47.118;15.346;2022-09-25T08:02:41;8.63;;;7.43;;
35897;SDS011;21997;47.118;15.346;2022-09-25T08:05:07;9.10;;;8.20;;
35897;SDS011;21997;47.118;15.346;2022-09-25T08:10:40;8.80;;;7.93;;
35897;SDS011;21997;47.118;15.346;2022-09-25T08:13:05;9.17;;;8.03;;
35897;SDS011;21997;47.118;15.346;2022-09-25T08:15:31;8.90;;;7.33;;
35897;SDS011;21997;47.118;15.346;2022-09-25T08:17:57;8.57;;;7.67;;
35897;SDS011;21997;47.118;15.346;2022-09-25T08:20:23;8.83;;;7.60;;
35897;SDS011;21997;47.118;15.346;2022-09-25T08:22:51;8.23;;;7.10;;
35897;SDS011;21997;47.118;15.346;2022-09-25T08:25:17;7.37;;;6.73;;
35897;SDS011;21997;47.118;15.346;2022-09-25T08:27:42;6.70;;;6.00;;
35897;SDS011;21997;47.118;15.346;2022-09-25T08:30:08;8.37;;;7.43;;
35897;SDS011;21997;47.118;15.346;2022-09-25T08:32:35;8.40;;;7.20;;
35897;SDS011;21997;47.118;15.346;2022-09-25T08:35:01;8.07;;;7.30;;
35897;SDS011;21997;47.118;15.346;2022-09-25T08:37:27;10.67;;;6.80;;
35897;SDS011;21997;47.118;15.346;2022-09-25T08:39:53;10.00;;;7.30;;
35897;SDS011;21997;47.118;15.346;2022-09-25T08:42:21;11.67;;;8.47;;
35897;SDS011;21997;47.118;15.346;2022-09-25T08:44:54;15.23;;;12.43;;
35897;SDS011;21997;47.118;15.346;2022-09-25T08:47:41;12.47;;;9.73;;
35897;SDS011;21997;47.118;15.346;2022-09-25T08:50:25;12.23;;;9.30;;
35897;SDS011;21997;47.118;15.346;2022-09-25T08:52:55;9.23;;;8.30;;
35897;SDS011;21997;47.118;15.346;2022-09-25T08:55:34;9.90;;;8.03;;
35897;SDS011;21997;47.118;15.346;2022-09-25T08:58:25;9.87;;;8.00;;
35897;SDS011;21997;47.118;15.346;2022-09-25T09:00:55;10.00;;;8.73;;
35897;SDS011;21997;47.118;15.346;2022-09-25T09:03:22;12.13;;;9.60;;
35897;SDS011;21997;47.118;15.346;2022-09-25T09:05:51;10.93;;;8.77;;
35897;SDS011;21997;47.118;15.346;2022-09-25T09:08:26;10.97;;;9.60;;
35897;SDS011;21997;47.118;15.346;2022-09-25T09:11:11;10.37;;;9.30;;
35897;SDS011;21997;47.118;15.346;2022-09-25T09:13:41;9.90;;;8.53;;
35897;SDS011;21997;47.118;15.346;2022-09-25T09:16:16;9.47;;;8.47;;
35897;SDS011;21997;47.118;15.346;2022-09-25T09:18:45;10.60;;;8.47;;
35897;SDS011;21997;47.118;15.346;2022-09-25T09:24:15;9.97;;;8.97;;
35897;SDS011;21997;47.118;15.346;2022-09-25T09:48:13;9.97;;;7.97;;
35897;SDS011;21997;47.118;15.346;2022-09-25T09:50:54;8.63;;;7.73;;
35897;SDS011;21997;47.118;15.346;2022-09-25T09:53:30;9.23;;;8.33;;
35897;SDS011;21997;47.118;15.346;2022-09-25T09:56:03;9.20;;;8.30;;
35897;SDS011;21997;47.118;15.346;2022-09-25T10:01:06;8.80;;;7.90;;
35897;SDS011;21997;47.118;15.346;2022-09-25T10:03:38;9.67;;;8.47;;
35897;SDS011;21997;47.118;15.346;2022-09-25T10:09:28;9.03;;;8.10;;
35897;SDS011;21997;47.118;15.346;2022-09-25T10:12:03;11.73;;;10.13;;
35897;SDS011;21997;47.118;15.346;2022-09-25T10:14:35;9.07;;;8.10;;
35897;SDS011;21997;47.118;15.346;2022-09-25T10:17:02;10.87;;;8.53;;
35897;SDS011;21997;47.118;15.346;2022-09-25T10:19:38;12.10;;;9.50;;
35897;SDS011;21997;47.118;15.346;2022-09-25T10:22:16;11.67;;;8.83;;
35897;SDS011;21997;47.118;15.346;2022-09-25T10:32:28;20.27;;;13.97;;
35897;SDS011;21997;47.118;15.346;2022-09-25T10:34:54;17.67;;;14.60;;
35897;SDS011;21997;47.118;15.346;2022-09-25T10:37:20;49.20;;;28.03;;
35897;SDS011;21997;47.118;15.346;2022-09-25T10:43:03;13.20;;;10.67;;
35897;SDS011;21997;47.118;15.346;2022-09-25T10:45:38;12.27;;;11.00;;
35897;SDS011;21997;47.118;15.346;2022-09-25T10:51:14;11.53;;;9.07;;
35897;SDS011;21997;47.118;15.346;2022-09-25T10:53:46;11.07;;;9.20;;
35897;SDS011;21997;47.118;15.346;2022-09-25T10:56:14;11.20;;;10.10;;
35897;SDS011;21997;47.118;15.346;2022-09-25T11:01:11;10.57;;;9.57;;
35897;SDS011;21997;47.118;15.346;2022-09-25T11:03:43;10.43;;;8.33;;
35897;SDS011;21997;47.118;15.346;2022-09-25T11:06:15;9.33;;;8.43;;
35897;SDS011;21997;47.118;15.346;2022-09-25T11:08:45;12.27;;;8.33;;
35897;SDS011;21997;47.118;15.346;2022-09-25T11:11:13;9.00;;;8.03;;
35897;SDS011;21997;47.118;15.346;2022-09-25T11:13:46;10.13;;;8.40;;
35897;SDS011;21997;47.118;15.346;2022-09-25T11:16:14;8.27;;;7.47;;
35897;SDS011;21997;47.118;15.346;2022-09-25T11:18:41;8.17;;;7.37;;
35897;SDS011;21997;47.118;15.346;2022-09-25T11:26:39;8.93;;;7.30;;
35897;SDS011;21997;47.118;15.346;2022-09-25T11:29:11;10.03;;;8.43;;
35897;SDS011;21997;47.118;15.346;2022-09-25T11:31:49;8.90;;;8.10;;
35897;SDS011;21997;47.118;15.346;2022-09-25T11:34:39;9.37;;;8.40;;
35897;SDS011;21997;47.118;15.346;2022-09-25T11:40:51;8.23;;;7.43;;
35897;SDS011;21997;47.118;15.346;2022-09-25T11:43:51;7.80;;;7.00;;
35897;SDS011;21997;47.118;15.346;2022-09-25T11:57:12;8.43;;;7.70;;
35897;SDS011;21997;47.118;15.346;2022-09-25T12:00:02;8.80;;;7.30;;
35897;SDS011;21997;47.118;15.346;2022-09-25T12:14:01;7.53;;;6.73;;
35897;SDS011;21997;47.118;15.346;2022-09-25T12:16:40;5.97;;;5.47;;
35897;SDS011;21997;47.118;15.346;2022-09-25T12:21:38;7.67;;;6.97;;
35897;SDS011;21997;47.118;15.346;2022-09-25T12:39:31;6.37;;;5.63;;
35897;SDS011;21997;47.118;15.346;2022-09-25T12:42:35;7.60;;;6.80;;
35897;SDS011;21997;47.118;15.346;2022-09-25T12:45:02;6.70;;;6.00;;
35897;SDS011;21997;47.118;15.346;2022-09-25T12:47:43;6.50;;;5.90;;
35897;SDS011;21997;47.118;15.346;2022-09-25T12:50:14;6.40;;;5.80;;
35897;SDS011;21997;47.118;15.346;2022-09-25T12:52:42;5.60;;;4.93;;
35897;SDS011;21997;47.118;15.346;2022-09-25T12:55:15;5.60;;;5.10;;
35897;SDS011;21997;47.118;15.346;2022-09-25T12:57:48;5.30;;;4.87;;
35897;SDS011;21997;47.118;15.346;2022-09-25T13:00:20;4.90;;;4.47;;
35897;SDS011;21997;47.118;15.346;2022-09-25T13:03:03;5.90;;;4.90;;
35897;SDS011;21997;47.118;15.346;2022-09-25T13:08:21;6.00;;;5.37;;
35897;SDS011;21997;47.118;15.346;2022-09-25T13:11:00;6.67;;;5.60;;
35897;SDS011;21997;47.118;15.346;2022-09-25T13:13:29;8.00;;;5.93;;
35897;SDS011;21997;47.118;15.346;2022-09-25T13:15:56;6.07;;;5.47;;
35897;SDS011;21997;47.118;15.346;2022-09-25T13:18:23;6.50;;;5.67;;
35897;SDS011;21997;47.118;15.346;2022-09-25T13:20:53;6.30;;;5.70;;
35897;SDS011;21997;47.118;15.346;2022-09-25T13:25:49;4.47;;;4.13;;
35897;SDS011;21997;47.118;15.346;2022-09-25T13:28:25;5.17;;;4.67;;
35897;SDS011;21997;47.118;15.346;2022-09-25T13:30:58;5.40;;;4.47;;
35897;SDS011;21997;47.118;15.346;2022-09-25T13:33:27;4.90;;;3.93;;
35897;SDS011;21997;47.118;15.346;2022-09-25T13:36:06;4.20;;;3.67;;
35897;SDS011;21997;47.118;15.346;2022-09-25T13:38:37;3.10;;;2.80;;
35897;SDS011;21997;47.118;15.346;2022-09-25T13:41:24;3.93;;;3.57;;
35897;SDS011;21997;47.118;15.346;2022-09-25T13:44:17;2.53;;;2.33;;
35897;SDS011;21997;47.118;15.346;2022-09-25T13:47:31;2.57;;;2.27;;
35897;SDS011;21997;47.118;15.346;2022-09-25T13:53:22;3.37;;;3.07;;
35897;SDS011;21997;47.118;15.346;2022-09-25T13:58:20;3.50;;;3.20;;
35897;SDS011;21997;47.118;15.346;2022-09-25T14:00:50;2.77;;;2.57;;
35897;SDS011;21997;47.118;15.346;2022-09-25T14:08:49;3.83;;;3.30;;
35897;SDS011;21997;47.118;15.346;2022-09-25T14:11:17;3.83;;;3.50;;
35897;SDS011;21997;47.118;15.346;2022-09-25T14:13:46;4.03;;;3.63;;
35897;SDS011;21997;47.118;15.346;2022-09-25T14:16:23;4.00;;;3.60;;
35897;SDS011;21997;47.118;15.346;2022-09-25T14:18:51;5.17;;;4.27;;
35897;SDS011;21997;47.118;15.346;2022-09-25T14:21:17;4.20;;;3.90;;
35897;SDS011;21997;47.118;15.346;2022-09-25T14:23:52;3.93;;;3.53;;
35897;SDS011;21997;47.118;15.346;2022-09-25T14:26:21;4.63;;;3.80;;
35897;SDS011;21997;47.118;15.346;2022-09-25T14:28:49;3.30;;;3.00;;
35897;SDS011;21997;47.118;15.346;2022-09-25T14:39:28;3.40;;;3.10;;
35897;SDS011;21997;47.118;15.346;2022-09-25T14:47:43;3.70;;;3.40;;
35897;SDS011;21997;47.118;15.346;2022-09-25T14:50:17;3.10;;;2.90;;
35897;SDS011;21997;47.118;15.346;2022-09-25T14:52:54;5.77;;;3.17;;
35897;SDS011;21997;47.118;15.346;2022-09-25T14:55:22;3.00;;;2.70;;
35897;SDS011;21997;47.118;15.346;2022-09-25T14:57:51;3.07;;;2.77;;
35897;SDS011;21997;47.118;15.346;2022-09-25T15:00:17;4.23;;;3.83;;
35897;SDS011;21997;47.118;15.346;2022-09-25T15:02:47;4.87;;;4.37;;
35897;SDS011;21997;47.118;15.346;2022-09-25T15:07:55;4.37;;;3.97;;
35897;SDS011;21997;47.118;15.346;2022-09-25T15:13:20;2.67;;;2.47;;
35897;SDS011;21997;47.118;15.346;2022-09-25T15:15:49;3.17;;;2.87;;
35897;SDS011;21997;47.118;15.346;2022-09-25T15:18:35;3.27;;;2.70;;
35897;SDS011;21997;47.118;15.346;2022-09-25T15:21:02;3.90;;;3.43;;
35897;SDS011;21997;47.118;15.346;2022-09-25T15:23:27;3.10;;;2.90;;
35897;SDS011;21997;47.118;15.346;2022-09-25T15:25:54;2.70;;;2.50;;
35897;SDS011;21997;47.118;15.346;2022-09-25T15:28:21;2.67;;;2.47;;
35897;SDS011;21997;47.118;15.346;2022-09-25T15:30:55;2.77;;;2.53;;
35897;SDS011;21997;47.118;15.346;2022-09-25T15:33:24;4.13;;;2.43;;
35897;SDS011;21997;47.118;15.346;2022-09-25T15:35:54;3.07;;;2.33;;
35897;SDS011;21997;47.118;15.346;2022-09-25T15:38:27;3.20;;;2.73;;
35897;SDS011;21997;47.118;15.346;2022-09-25T15:40:55;5.03;;;2.73;;
35897;SDS011;21997;47.118;15.346;2022-09-25T15:43:21;4.13;;;2.97;;
35897;SDS011;21997;47.118;15.346;2022-09-25T15:48:30;3.47;;;2.60;;
35897;SDS011;21997;47.118;15.346;2022-09-25T15:51:01;4.77;;;4.27;;
35897;SDS011;21997;47.118;15.346;2022-09-25T15:53:28;6.10;;;5.03;;
35897;SDS011;21997;47.118;15.346;2022-09-25T15:56:02;8.03;;;6.20;;
35897;SDS011;21997;47.118;15.346;2022-09-25T15:58:29;9.77;;;7.00;;
35897;SDS011;21997;47.118;15.346;2022-09-25T16:01:00;6.20;;;4.93;;
35897;SDS011;21997;47.118;15.346;2022-09-25T16:03:46;4.27;;;3.27;;
35897;SDS011;21997;47.118;15.346;2022-09-25T16:06:38;5.53;;;3.67;;
35897;SDS011;21997;47.118;15.346;2022-09-25T16:09:09;3.53;;;3.23;;
35897;SDS011;21997;47.118;15.346;2022-09-25T16:11:41;5.90;;;5.40;;
35897;SDS011;21997;47.118;15.346;2022-09-25T16:14:20;6.17;;;4.20;;
35897;SDS011;21997;47.118;15.346;2022-09-25T16:16:53;4.93;;;3.67;;
35897;SDS011;21997;47.118;15.346;2022-09-25T16:21:50;4.50;;;4.03;;
35897;SDS011;21997;47.118;15.346;2022-09-25T16:24:20;4.40;;;4.00;;
35897;SDS011;21997;47.118;15.346;2022-09-25T16:26:53;4.23;;;3.83;;
35897;SDS011;21997;47.118;15.346;2022-09-25T16:29:21;4.67;;;3.60;;
35897;SDS011;21997;47.118;15.346;2022-09-25T16:31:48;4.07;;;3.67;;
35897;SDS011;21997;47.118;15.346;2022-09-25T16:34:28;4.03;;;3.73;;
35897;SDS011;21997;47.118;15.346;2022-09-25T16:36:56;4.03;;;3.70;;
35897;SDS011;21997;47.118;15.346;2022-09-25T16:39:29;3.93;;;3.63;;
35897;SDS011;21997;47.118;15.346;2022-09-25T16:41:55;3.77;;;3.47;;
35897;SDS011;21997;47.118;15.346;2022-09-25T16:44:42;3.50;;;3.20;;
35897;SDS011;21997;47.118;15.346;2022-09-25T16:49:36;8.93;;;6.20;;
35897;SDS011;21997;47.118;15.346;2022-09-25T16:52:03;3.70;;;3.40;;
35897;SDS011;21997;47.118;15.346;2022-09-25T16:54:36;3.93;;;3.50;;
35897;SDS011;21997;47.118;15.346;2022-09-25T16:57:02;4.30;;;3.47;;
35897;SDS011;21997;47.118;15.346;2022-09-25T16:59:28;3.50;;;3.20;;
35897;SDS011;21997;47.118;15.346;2022-09-25T17:01:59;3.70;;;3.17;;
35897;SDS011;21997;47.118;15.346;2022-09-25T17:04:26;5.20;;;4.70;;
35897;SDS011;21997;47.118;15.346;2022-09-25T17:06:53;5.83;;;4.10;;
35897;SDS011;21997;47.118;15.346;2022-09-25T17:09:21;6.63;;;5.03;;
35897;SDS011;21997;47.118;15.346;2022-09-25T17:11:46;9.90;;;6.90;;
35897;SDS011;21997;47.118;15.346;2022-09-25T17:14:19;8.20;;;6.77;;
35897;SDS011;21997;47.118;15.346;2022-09-25T17:16:47;6.70;;;5.50;;
35897;SDS011;21997;47.118;15.346;2022-09-25T17:19:13;4.70;;;4.23;;
35897;SDS011;21997;47.118;15.346;2022-09-25T17:21:47;5.00;;;3.67;;
35897;SDS011;21997;47.118;15.346;2022-09-25T17:24:15;3.77;;;3.10;;
35897;SDS011;21997;47.118;15.346;2022-09-25T17:26:42;4.10;;;3.60;;
35897;SDS011;21997;47.118;15.346;2022-09-25T17:29:08;3.03;;;2.80;;
35897;SDS011;21997;47.118;15.346;2022-09-25T17:31:33;4.80;;;3.47;;
35897;SDS011;21997;47.118;15.346;2022-09-25T17:33:59;3.77;;;3.40;;